sensor_id;sensor_type;location;lat;lon;timestamp;P1;durP1;ratioP1;P2;durP2;ratioP2
27794;SDS011;15176;50.844;4.412;2023-04-15T00:00:08;7.82;;;3.00;;
27794;SDS011;15176;50.844;4.412;2023-04-15T00:02:34;5.28;;;2.65;;
27794;SDS011;15176;50.844;4.412;2023-04-15T00:05:01;8.93;;;3.30;;
27794;SDS011;15176;50.844;4.412;2023-04-15T00:07:26;9.63;;;3.10;;
27794;SDS011;15176;50.844;4.412;2023-04-15T00:09:53;6.32;;;3.03;;
27794;SDS011;15176;50.844;4.412;2023-04-15T00:12:23;5.57;;;2.50;;
27794;SDS011;15176;50.844;4.412;2023-04-15T00:14:49;5.45;;;2.80;;
27794;SDS011;15176;50.844;4.412;2023-04-15T00:17:16;8.30;;;3.40;;
27794;SDS011;15176;50.844;4.412;2023-04-15T00:19:42;7.43;;;3.38;;
27794;SDS011;15176;50.844;4.412;2023-04-15T00:22:09;8.07;;;3.30;;
27794;SDS011;15176;50.844;4.412;2023-04-15T00:24:36;7.35;;;3.45;;
27794;SDS011;15176;50.844;4.412;2023-04-15T00:27:02;7.30;;;3.58;;
27794;SDS011;15176;50.844;4.412;2023-04-15T00:29:28;8.52;;;3.47;;
27794;SDS011;15176;50.844;4.412;2023-04-15T00:31:54;5.90;;;2.85;;
27794;SDS011;15176;50.844;4.412;2023-04-15T00:34:23;6.05;;;2.97;;
27794;SDS011;15176;50.844;4.412;2023-04-15T00:36:49;8.00;;;3.60;;
27794;SDS011;15176;50.844;4.412;2023-04-15T00:39:18;6.00;;;3.00;;
27794;SDS011;15176;50.844;4.412;2023-04-15T00:41:45;6.10;;;3.08;;
27794;SDS011;15176;50.844;4.412;2023-04-15T00:44:11;6.43;;;2.72;;
27794;SDS011;15176;50.844;4.412;2023-04-15T00:46:37;5.82;;;3.00;;
27794;SDS011;15176;50.844;4.412;2023-04-15T00:49:04;6.88;;;3.30;;
27794;SDS011;15176;50.844;4.412;2023-04-15T00:51:31;6.05;;;3.00;;
27794;SDS011;15176;50.844;4.412;2023-04-15T00:54:00;3.90;;;1.92;;
27794;SDS011;15176;50.844;4.412;2023-04-15T00:56:30;4.18;;;1.92;;
27794;SDS011;15176;50.844;4.412;2023-04-15T00:59:00;4.53;;;2.13;;
27794;SDS011;15176;50.844;4.412;2023-04-15T01:01:26;7.88;;;3.10;;
27794;SDS011;15176;50.844;4.412;2023-04-15T01:03:54;6.45;;;2.65;;
27794;SDS011;15176;50.844;4.412;2023-04-15T01:06:22;5.68;;;2.70;;
27794;SDS011;15176;50.844;4.412;2023-04-15T01:08:48;4.35;;;2.38;;
27794;SDS011;15176;50.844;4.412;2023-04-15T01:11:15;6.50;;;2.53;;
27794;SDS011;15176;50.844;4.412;2023-04-15T01:13:42;5.88;;;2.67;;
27794;SDS011;15176;50.844;4.412;2023-04-15T01:16:07;5.13;;;2.53;;
27794;SDS011;15176;50.844;4.412;2023-04-15T01:18:34;5.75;;;2.30;;
27794;SDS011;15176;50.844;4.412;2023-04-15T01:21:01;4.80;;;1.98;;
27794;SDS011;15176;50.844;4.412;2023-04-15T01:23:29;5.90;;;2.22;;
27794;SDS011;15176;50.844;4.412;2023-04-15T01:25:55;6.22;;;2.10;;
27794;SDS011;15176;50.844;4.412;2023-04-15T01:28:22;4.20;;;2.00;;
27794;SDS011;15176;50.844;4.412;2023-04-15T01:30:48;4.35;;;2.03;;
27794;SDS011;15176;50.844;4.412;2023-04-15T01:33:13;7.22;;;2.40;;
27794;SDS011;15176;50.844;4.412;2023-04-15T01:35:40;4.70;;;2.20;;
27794;SDS011;15176;50.844;4.412;2023-04-15T01:38:08;5.20;;;2.15;;
27794;SDS011;15176;50.844;4.412;2023-04-15T01:40:35;5.05;;;2.42;;
27794;SDS011;15176;50.844;4.412;2023-04-15T01:43:01;3.70;;;1.70;;
27794;SDS011;15176;50.844;4.412;2023-04-15T01:45:28;4.47;;;2.20;;
27794;SDS011;15176;50.844;4.412;2023-04-15T01:47:54;7.43;;;2.40;;
27794;SDS011;15176;50.844;4.412;2023-04-15T01:50:20;7.78;;;2.78;;
27794;SDS011;15176;50.844;4.412;2023-04-15T01:52:47;4.68;;;2.33;;
27794;SDS011;15176;50.844;4.412;2023-04-15T01:55:12;6.65;;;2.40;;
27794;SDS011;15176;50.844;4.412;2023-04-15T01:57:38;6.22;;;2.78;;
27794;SDS011;15176;50.844;4.412;2023-04-15T02:00:05;5.82;;;2.70;;
27794;SDS011;15176;50.844;4.412;2023-04-15T02:02:32;4.82;;;2.63;;
27794;SDS011;15176;50.844;4.412;2023-04-15T02:04:58;6.18;;;2.75;;
27794;SDS011;15176;50.844;4.412;2023-04-15T02:07:23;6.75;;;2.85;;
27794;SDS011;15176;50.844;4.412;2023-04-15T02:09:49;5.15;;;2.35;;
27794;SDS011;15176;50.844;4.412;2023-04-15T02:12:15;8.93;;;3.10;;
27794;SDS011;15176;50.844;4.412;2023-04-15T02:14:42;8.05;;;2.70;;
27794;SDS011;15176;50.844;4.412;2023-04-15T02:17:08;6.80;;;2.75;;
27794;SDS011;15176;50.844;4.412;2023-04-15T02:19:33;6.53;;;2.83;;
27794;SDS011;15176;50.844;4.412;2023-04-15T02:21:59;6.55;;;2.95;;
27794;SDS011;15176;50.844;4.412;2023-04-15T02:24:29;16.08;;;3.40;;
27794;SDS011;15176;50.844;4.412;2023-04-15T02:26:55;6.30;;;2.80;;
27794;SDS011;15176;50.844;4.412;2023-04-15T02:29:21;7.60;;;3.38;;
27794;SDS011;15176;50.844;4.412;2023-04-15T02:31:47;7.38;;;3.70;;
27794;SDS011;15176;50.844;4.412;2023-04-15T02:34:13;9.57;;;4.07;;
27794;SDS011;15176;50.844;4.412;2023-04-15T02:36:39;8.00;;;3.65;;
27794;SDS011;15176;50.844;4.412;2023-04-15T02:39:05;12.75;;;4.18;;
27794;SDS011;15176;50.844;4.412;2023-04-15T02:41:31;9.93;;;3.42;;
27794;SDS011;15176;50.844;4.412;2023-04-15T02:43:56;11.73;;;4.72;;
27794;SDS011;15176;50.844;4.412;2023-04-15T02:46:22;15.07;;;5.72;;
27794;SDS011;15176;50.844;4.412;2023-04-15T02:48:48;16.33;;;6.57;;
27794;SDS011;15176;50.844;4.412;2023-04-15T02:51:15;17.63;;;7.97;;
27794;SDS011;15176;50.844;4.412;2023-04-15T02:53:44;16.88;;;6.88;;
27794;SDS011;15176;50.844;4.412;2023-04-15T02:56:10;22.17;;;8.15;;
27794;SDS011;15176;50.844;4.412;2023-04-15T02:58:36;17.65;;;7.82;;
27794;SDS011;15176;50.844;4.412;2023-04-15T03:01:04;20.45;;;8.38;;
27794;SDS011;15176;50.844;4.412;2023-04-15T03:03:33;20.60;;;8.50;;
27794;SDS011;15176;50.844;4.412;2023-04-15T03:05:58;20.00;;;8.40;;
27794;SDS011;15176;50.844;4.412;2023-04-15T03:08:24;20.08;;;8.68;;
27794;SDS011;15176;50.844;4.412;2023-04-15T03:10:50;18.58;;;8.35;;
27794;SDS011;15176;50.844;4.412;2023-04-15T03:13:17;25.08;;;10.13;;
27794;SDS011;15176;50.844;4.412;2023-04-15T03:15:45;22.38;;;11.18;;
27794;SDS011;15176;50.844;4.412;2023-04-15T03:18:11;30.45;;;12.70;;
27794;SDS011;15176;50.844;4.412;2023-04-15T03:20:37;28.77;;;12.60;;
27794;SDS011;15176;50.844;4.412;2023-04-15T03:23:03;35.10;;;13.00;;
27794;SDS011;15176;50.844;4.412;2023-04-15T03:25:29;26.30;;;10.80;;
27794;SDS011;15176;50.844;4.412;2023-04-15T03:27:54;25.98;;;12.07;;
27794;SDS011;15176;50.844;4.412;2023-04-15T03:30:20;23.33;;;10.55;;
27794;SDS011;15176;50.844;4.412;2023-04-15T03:32:46;23.75;;;10.55;;
27794;SDS011;15176;50.844;4.412;2023-04-15T03:35:12;20.50;;;9.20;;
27794;SDS011;15176;50.844;4.412;2023-04-15T03:37:37;19.05;;;9.68;;
27794;SDS011;15176;50.844;4.412;2023-04-15T03:40:04;18.10;;;9.23;;
27794;SDS011;15176;50.844;4.412;2023-04-15T03:42:30;21.17;;;9.20;;
27794;SDS011;15176;50.844;4.412;2023-04-15T03:44:56;18.13;;;8.27;;
27794;SDS011;15176;50.844;4.412;2023-04-15T03:47:21;20.17;;;9.00;;
27794;SDS011;15176;50.844;4.412;2023-04-15T03:49:47;15.05;;;7.00;;
27794;SDS011;15176;50.844;4.412;2023-04-15T03:52:13;16.23;;;7.93;;
27794;SDS011;15176;50.844;4.412;2023-04-15T03:54:39;19.25;;;8.07;;
27794;SDS011;15176;50.844;4.412;2023-04-15T03:57:06;16.40;;;8.23;;
27794;SDS011;15176;50.844;4.412;2023-04-15T03:59:32;15.35;;;7.90;;
27794;SDS011;15176;50.844;4.412;2023-04-15T04:01:58;13.23;;;7.53;;
27794;SDS011;15176;50.844;4.412;2023-04-15T04:04:24;16.30;;;7.97;;
27794;SDS011;15176;50.844;4.412;2023-04-15T04:06:51;13.85;;;8.02;;
27794;SDS011;15176;50.844;4.412;2023-04-15T04:09:17;13.13;;;7.68;;
27794;SDS011;15176;50.844;4.412;2023-04-15T04:11:42;16.63;;;7.35;;
27794;SDS011;15176;50.844;4.412;2023-04-15T04:14:09;12.52;;;7.10;;
27794;SDS011;15176;50.844;4.412;2023-04-15T04:16:36;12.48;;;7.13;;
27794;SDS011;15176;50.844;4.412;2023-04-15T04:19:02;12.77;;;6.43;;
27794;SDS011;15176;50.844;4.412;2023-04-15T04:21:27;12.20;;;7.03;;
27794;SDS011;15176;50.844;4.412;2023-04-15T04:23:53;14.00;;;7.18;;
27794;SDS011;15176;50.844;4.412;2023-04-15T04:26:19;11.88;;;6.00;;
27794;SDS011;15176;50.844;4.412;2023-04-15T04:28:44;13.05;;;6.70;;
27794;SDS011;15176;50.844;4.412;2023-04-15T04:31:10;14.40;;;7.57;;
27794;SDS011;15176;50.844;4.412;2023-04-15T04:33:36;11.98;;;7.00;;
27794;SDS011;15176;50.844;4.412;2023-04-15T04:36:01;12.07;;;6.85;;
27794;SDS011;15176;50.844;4.412;2023-04-15T04:38:27;12.57;;;6.32;;
27794;SDS011;15176;50.844;4.412;2023-04-15T04:40:53;12.20;;;6.15;;
27794;SDS011;15176;50.844;4.412;2023-04-15T04:43:19;11.73;;;6.20;;
27794;SDS011;15176;50.844;4.412;2023-04-15T04:45:45;16.10;;;5.95;;
27794;SDS011;15176;50.844;4.412;2023-04-15T04:48:10;12.82;;;6.32;;
27794;SDS011;15176;50.844;4.412;2023-04-15T04:50:36;15.07;;;6.65;;
27794;SDS011;15176;50.844;4.412;2023-04-15T04:53:01;13.68;;;6.30;;
27794;SDS011;15176;50.844;4.412;2023-04-15T04:55:28;15.82;;;7.30;;
27794;SDS011;15176;50.844;4.412;2023-04-15T04:57:53;13.20;;;6.07;;
27794;SDS011;15176;50.844;4.412;2023-04-15T05:00:19;11.50;;;6.00;;
27794;SDS011;15176;50.844;4.412;2023-04-15T05:02:45;15.65;;;6.13;;
27794;SDS011;15176;50.844;4.412;2023-04-15T05:05:11;12.40;;;6.47;;
27794;SDS011;15176;50.844;4.412;2023-04-15T05:07:37;15.13;;;6.45;;
27794;SDS011;15176;50.844;4.412;2023-04-15T05:10:03;12.45;;;6.63;;
27794;SDS011;15176;50.844;4.412;2023-04-15T05:12:30;10.00;;;6.18;;
27794;SDS011;15176;50.844;4.412;2023-04-15T05:14:56;12.43;;;6.47;;
27794;SDS011;15176;50.844;4.412;2023-04-15T05:17:22;11.82;;;6.38;;
27794;SDS011;15176;50.844;4.412;2023-04-15T05:19:48;12.75;;;6.20;;
27794;SDS011;15176;50.844;4.412;2023-04-15T05:22:13;17.90;;;6.63;;
27794;SDS011;15176;50.844;4.412;2023-04-15T05:24:39;12.90;;;5.78;;
27794;SDS011;15176;50.844;4.412;2023-04-15T05:27:05;12.68;;;6.20;;
27794;SDS011;15176;50.844;4.412;2023-04-15T05:29:32;12.70;;;6.32;;
27794;SDS011;15176;50.844;4.412;2023-04-15T05:31:58;11.48;;;6.38;;
27794;SDS011;15176;50.844;4.412;2023-04-15T05:34:24;16.33;;;6.57;;
27794;SDS011;15176;50.844;4.412;2023-04-15T05:36:50;13.65;;;6.20;;
27794;SDS011;15176;50.844;4.412;2023-04-15T05:39:16;14.35;;;6.40;;
27794;SDS011;15176;50.844;4.412;2023-04-15T05:41:42;13.80;;;6.32;;
27794;SDS011;15176;50.844;4.412;2023-04-15T05:44:08;12.35;;;6.20;;
27794;SDS011;15176;50.844;4.412;2023-04-15T05:46:34;13.15;;;6.07;;
27794;SDS011;15176;50.844;4.412;2023-04-15T05:49:00;13.85;;;6.82;;
27794;SDS011;15176;50.844;4.412;2023-04-15T05:51:26;16.70;;;7.15;;
27794;SDS011;15176;50.844;4.412;2023-04-15T05:53:51;13.73;;;6.47;;
27794;SDS011;15176;50.844;4.412;2023-04-15T05:56:17;17.50;;;6.90;;
27794;SDS011;15176;50.844;4.412;2023-04-15T05:58:44;12.00;;;6.20;;
27794;SDS011;15176;50.844;4.412;2023-04-15T06:01:10;16.52;;;7.88;;
27794;SDS011;15176;50.844;4.412;2023-04-15T06:03:36;14.85;;;7.15;;
27794;SDS011;15176;50.844;4.412;2023-04-15T06:06:02;19.95;;;7.22;;
27794;SDS011;15176;50.844;4.412;2023-04-15T06:08:28;14.13;;;7.63;;
27794;SDS011;15176;50.844;4.412;2023-04-15T06:10:54;23.85;;;7.80;;
27794;SDS011;15176;50.844;4.412;2023-04-15T06:13:20;15.48;;;7.45;;
27794;SDS011;15176;50.844;4.412;2023-04-15T06:15:45;10.38;;;6.35;;
27794;SDS011;15176;50.844;4.412;2023-04-15T06:18:12;15.25;;;7.50;;
27794;SDS011;15176;50.844;4.412;2023-04-15T06:20:38;18.27;;;7.55;;
27794;SDS011;15176;50.844;4.412;2023-04-15T06:23:04;15.90;;;6.60;;
27794;SDS011;15176;50.844;4.412;2023-04-15T06:25:30;12.15;;;6.72;;
27794;SDS011;15176;50.844;4.412;2023-04-15T06:27:55;14.43;;;6.80;;
27794;SDS011;15176;50.844;4.412;2023-04-15T06:30:21;14.98;;;7.10;;
27794;SDS011;15176;50.844;4.412;2023-04-15T06:32:47;12.63;;;6.10;;
27794;SDS011;15176;50.844;4.412;2023-04-15T06:35:12;14.73;;;5.80;;
27794;SDS011;15176;50.844;4.412;2023-04-15T06:37:38;13.68;;;6.65;;
27794;SDS011;15176;50.844;4.412;2023-04-15T06:40:04;14.15;;;6.65;;
27794;SDS011;15176;50.844;4.412;2023-04-15T06:42:30;15.57;;;7.05;;
27794;SDS011;15176;50.844;4.412;2023-04-15T06:44:56;15.70;;;7.60;;
27794;SDS011;15176;50.844;4.412;2023-04-15T06:47:21;17.75;;;6.50;;
27794;SDS011;15176;50.844;4.412;2023-04-15T06:49:47;12.63;;;6.55;;
27794;SDS011;15176;50.844;4.412;2023-04-15T06:52:13;10.45;;;5.97;;
27794;SDS011;15176;50.844;4.412;2023-04-15T06:54:40;12.48;;;6.40;;
27794;SDS011;15176;50.844;4.412;2023-04-15T06:57:06;13.45;;;6.45;;
27794;SDS011;15176;50.844;4.412;2023-04-15T06:59:33;16.17;;;6.28;;
27794;SDS011;15176;50.844;4.412;2023-04-15T07:01:59;12.00;;;6.18;;
27794;SDS011;15176;50.844;4.412;2023-04-15T07:04:24;13.93;;;6.03;;
27794;SDS011;15176;50.844;4.412;2023-04-15T07:06:50;11.07;;;6.05;;
27794;SDS011;15176;50.844;4.412;2023-04-15T07:09:15;12.05;;;6.10;;
27794;SDS011;15176;50.844;4.412;2023-04-15T07:11:41;12.60;;;5.97;;
27794;SDS011;15176;50.844;4.412;2023-04-15T07:14:07;11.20;;;5.93;;
27794;SDS011;15176;50.844;4.412;2023-04-15T07:16:33;12.45;;;6.68;;
27794;SDS011;15176;50.844;4.412;2023-04-15T07:19:00;14.85;;;6.40;;
27794;SDS011;15176;50.844;4.412;2023-04-15T07:21:27;14.00;;;6.30;;
27794;SDS011;15176;50.844;4.412;2023-04-15T07:23:53;14.55;;;5.90;;
27794;SDS011;15176;50.844;4.412;2023-04-15T07:26:19;14.05;;;6.53;;
27794;SDS011;15176;50.844;4.412;2023-04-15T07:28:48;12.25;;;6.43;;
27794;SDS011;15176;50.844;4.412;2023-04-15T07:31:13;12.45;;;6.47;;
27794;SDS011;15176;50.844;4.412;2023-04-15T07:33:40;15.88;;;6.30;;
27794;SDS011;15176;50.844;4.412;2023-04-15T07:36:06;12.30;;;6.38;;
27794;SDS011;15176;50.844;4.412;2023-04-15T07:38:32;11.38;;;6.28;;
27794;SDS011;15176;50.844;4.412;2023-04-15T07:40:57;13.10;;;6.35;;
27794;SDS011;15176;50.844;4.412;2023-04-15T07:43:24;14.88;;;6.80;;
27794;SDS011;15176;50.844;4.412;2023-04-15T07:45:49;14.15;;;7.57;;
27794;SDS011;15176;50.844;4.412;2023-04-15T07:48:15;12.95;;;7.15;;
27794;SDS011;15176;50.844;4.412;2023-04-15T07:50:41;16.17;;;6.95;;
27794;SDS011;15176;50.844;4.412;2023-04-15T07:53:06;13.60;;;7.05;;
27794;SDS011;15176;50.844;4.412;2023-04-15T07:55:33;13.30;;;7.03;;
27794;SDS011;15176;50.844;4.412;2023-04-15T07:57:59;14.95;;;7.57;;
27794;SDS011;15176;50.844;4.412;2023-04-15T08:00:24;15.77;;;7.78;;
27794;SDS011;15176;50.844;4.412;2023-04-15T08:02:50;13.98;;;7.38;;
27794;SDS011;15176;50.844;4.412;2023-04-15T08:05:17;13.15;;;6.97;;
27794;SDS011;15176;50.844;4.412;2023-04-15T08:07:44;16.77;;;7.90;;
27794;SDS011;15176;50.844;4.412;2023-04-15T08:10:10;13.15;;;7.75;;
27794;SDS011;15176;50.844;4.412;2023-04-15T08:12:37;15.80;;;7.78;;
27794;SDS011;15176;50.844;4.412;2023-04-15T08:15:03;14.07;;;7.45;;
27794;SDS011;15176;50.844;4.412;2023-04-15T08:17:29;17.80;;;8.05;;
27794;SDS011;15176;50.844;4.412;2023-04-15T08:19:54;16.75;;;7.40;;
27794;SDS011;15176;50.844;4.412;2023-04-15T08:22:21;18.17;;;7.90;;
27794;SDS011;15176;50.844;4.412;2023-04-15T08:24:47;15.55;;;8.10;;
27794;SDS011;15176;50.844;4.412;2023-04-15T08:27:13;13.15;;;8.40;;
27794;SDS011;15176;50.844;4.412;2023-04-15T08:29:39;19.10;;;7.72;;
27794;SDS011;15176;50.844;4.412;2023-04-15T08:32:06;16.67;;;8.60;;
27794;SDS011;15176;50.844;4.412;2023-04-15T08:34:34;15.30;;;9.02;;
27794;SDS011;15176;50.844;4.412;2023-04-15T08:37:00;15.77;;;8.75;;
27794;SDS011;15176;50.844;4.412;2023-04-15T08:39:27;14.23;;;8.35;;
27794;SDS011;15176;50.844;4.412;2023-04-15T08:42:02;20.33;;;9.30;;
27794;SDS011;15176;50.844;4.412;2023-04-15T08:44:34;18.13;;;9.15;;
27794;SDS011;15176;50.844;4.412;2023-04-15T08:47:03;22.05;;;9.27;;
27794;SDS011;15176;50.844;4.412;2023-04-15T08:49:32;18.75;;;8.73;;
27794;SDS011;15176;50.844;4.412;2023-04-15T08:52:03;15.45;;;9.50;;
27794;SDS011;15176;50.844;4.412;2023-04-15T08:54:30;12.27;;;8.15;;
27794;SDS011;15176;50.844;4.412;2023-04-15T08:56:56;16.13;;;9.20;;
27794;SDS011;15176;50.844;4.412;2023-04-15T08:59:22;17.10;;;10.25;;
27794;SDS011;15176;50.844;4.412;2023-04-15T09:01:49;14.48;;;8.73;;
27794;SDS011;15176;50.844;4.412;2023-04-15T09:04:16;17.55;;;9.07;;
27794;SDS011;15176;50.844;4.412;2023-04-15T09:06:42;15.05;;;8.23;;
27794;SDS011;15176;50.844;4.412;2023-04-15T09:09:08;15.95;;;9.13;;
27794;SDS011;15176;50.844;4.412;2023-04-15T09:11:33;17.35;;;9.30;;
27794;SDS011;15176;50.844;4.412;2023-04-15T09:14:00;14.02;;;8.50;;
27794;SDS011;15176;50.844;4.412;2023-04-15T09:16:26;13.63;;;8.48;;
27794;SDS011;15176;50.844;4.412;2023-04-15T09:18:52;12.45;;;8.05;;
27794;SDS011;15176;50.844;4.412;2023-04-15T09:21:18;14.40;;;7.60;;
27794;SDS011;15176;50.844;4.412;2023-04-15T09:23:58;15.35;;;7.65;;
27794;SDS011;15176;50.844;4.412;2023-04-15T09:26:31;12.10;;;6.35;;
27794;SDS011;15176;50.844;4.412;2023-04-15T09:29:10;11.60;;;5.35;;
27794;SDS011;15176;50.844;4.412;2023-04-15T09:31:38;11.30;;;5.82;;
27794;SDS011;15176;50.844;4.412;2023-04-15T09:34:04;13.30;;;6.00;;
27794;SDS011;15176;50.844;4.412;2023-04-15T09:37:04;10.18;;;5.85;;
27794;SDS011;15176;50.844;4.412;2023-04-15T09:39:23;9.30;;;5.38;;
27794;SDS011;15176;50.844;4.412;2023-04-15T09:42:05;13.13;;;5.10;;
27794;SDS011;15176;50.844;4.412;2023-04-15T09:44:31;10.93;;;5.70;;
27794;SDS011;15176;50.844;4.412;2023-04-15T09:46:57;12.02;;;5.50;;
27794;SDS011;15176;50.844;4.412;2023-04-15T09:49:22;13.88;;;5.93;;
27794;SDS011;15176;50.844;4.412;2023-04-15T09:51:48;10.82;;;5.72;;
27794;SDS011;15176;50.844;4.412;2023-04-15T09:54:20;11.13;;;5.80;;
27794;SDS011;15176;50.844;4.412;2023-04-15T09:56:46;12.13;;;5.13;;
27794;SDS011;15176;50.844;4.412;2023-04-15T09:59:12;7.80;;;4.05;;
27794;SDS011;15176;50.844;4.412;2023-04-15T10:01:38;10.95;;;4.78;;
27794;SDS011;15176;50.844;4.412;2023-04-15T10:04:06;13.52;;;5.15;;
27794;SDS011;15176;50.844;4.412;2023-04-15T10:06:35;9.00;;;5.15;;
27794;SDS011;15176;50.844;4.412;2023-04-15T10:09:01;9.38;;;4.78;;
27794;SDS011;15176;50.844;4.412;2023-04-15T10:11:27;9.27;;;5.13;;
27794;SDS011;15176;50.844;4.412;2023-04-15T10:13:53;10.35;;;5.35;;
27794;SDS011;15176;50.844;4.412;2023-04-15T10:16:21;9.20;;;4.78;;
27794;SDS011;15176;50.844;4.412;2023-04-15T10:18:53;7.57;;;4.93;;
27794;SDS011;15176;50.844;4.412;2023-04-15T10:21:20;7.35;;;4.75;;
27794;SDS011;15176;50.844;4.412;2023-04-15T10:23:47;9.45;;;4.78;;
27794;SDS011;15176;50.844;4.412;2023-04-15T10:26:14;10.48;;;4.88;;
27794;SDS011;15176;50.844;4.412;2023-04-15T10:28:41;10.55;;;4.82;;
27794;SDS011;15176;50.844;4.412;2023-04-15T10:31:08;8.43;;;4.88;;
27794;SDS011;15176;50.844;4.412;2023-04-15T10:33:40;7.82;;;4.30;;
27794;SDS011;15176;50.844;4.412;2023-04-15T10:36:07;8.05;;;3.88;;
27794;SDS011;15176;50.844;4.412;2023-04-15T10:38:34;7.07;;;3.47;;
27794;SDS011;15176;50.844;4.412;2023-04-15T10:43:46;8.77;;;3.60;;
27794;SDS011;15176;50.844;4.412;2023-04-15T10:46:21;5.68;;;3.13;;
27794;SDS011;15176;50.844;4.412;2023-04-15T10:48:49;9.98;;;3.90;;
27794;SDS011;15176;50.844;4.412;2023-04-15T10:51:25;7.85;;;3.20;;
27794;SDS011;15176;50.844;4.412;2023-04-15T10:53:55;9.68;;;3.20;;
27794;SDS011;15176;50.844;4.412;2023-04-15T10:56:22;5.82;;;2.47;;
27794;SDS011;15176;50.844;4.412;2023-04-15T10:58:48;11.85;;;3.47;;
27794;SDS011;15176;50.844;4.412;2023-04-15T11:01:14;6.47;;;3.20;;
27794;SDS011;15176;50.844;4.412;2023-04-15T11:03:41;6.45;;;2.80;;
27794;SDS011;15176;50.844;4.412;2023-04-15T11:06:07;5.50;;;2.17;;
27794;SDS011;15176;50.844;4.412;2023-04-15T11:11:20;4.38;;;2.10;;
27794;SDS011;15176;50.844;4.412;2023-04-15T11:13:49;4.43;;;1.70;;
27794;SDS011;15176;50.844;4.412;2023-04-15T11:16:17;7.68;;;2.50;;
27794;SDS011;15176;50.844;4.412;2023-04-15T11:18:52;6.10;;;2.78;;
27794;SDS011;15176;50.844;4.412;2023-04-15T11:21:19;6.88;;;3.20;;
27794;SDS011;15176;50.844;4.412;2023-04-15T11:23:53;6.57;;;3.78;;
27794;SDS011;15176;50.844;4.412;2023-04-15T11:26:18;6.72;;;3.08;;
27794;SDS011;15176;50.844;4.412;2023-04-15T11:28:51;7.13;;;3.33;;
27794;SDS011;15176;50.844;4.412;2023-04-15T11:31:16;4.75;;;3.05;;
27794;SDS011;15176;50.844;4.412;2023-04-15T11:33:56;7.25;;;2.92;;
27794;SDS011;15176;50.844;4.412;2023-04-15T11:36:24;6.43;;;3.22;;
27794;SDS011;15176;50.844;4.412;2023-04-15T11:38:51;6.50;;;3.17;;
27794;SDS011;15176;50.844;4.412;2023-04-15T11:41:20;4.75;;;2.58;;
27794;SDS011;15176;50.844;4.412;2023-04-15T11:43:47;5.20;;;2.85;;
27794;SDS011;15176;50.844;4.412;2023-04-15T11:46:13;6.30;;;3.20;;
27794;SDS011;15176;50.844;4.412;2023-04-15T11:48:41;6.60;;;3.25;;
27794;SDS011;15176;50.844;4.412;2023-04-15T11:51:08;5.72;;;2.33;;
27794;SDS011;15176;50.844;4.412;2023-04-15T11:53:37;4.65;;;2.05;;
27794;SDS011;15176;50.844;4.412;2023-04-15T11:56:20;7.72;;;2.55;;
27794;SDS011;15176;50.844;4.412;2023-04-15T11:58:52;8.23;;;3.30;;
27794;SDS011;15176;50.844;4.412;2023-04-15T12:01:29;5.43;;;3.00;;
27794;SDS011;15176;50.844;4.412;2023-04-15T12:04:10;4.95;;;2.38;;
27794;SDS011;15176;50.844;4.412;2023-04-15T12:06:47;5.03;;;2.60;;
27794;SDS011;15176;50.844;4.412;2023-04-15T12:09:14;6.13;;;3.25;;
27794;SDS011;15176;50.844;4.412;2023-04-15T12:14:26;5.57;;;3.28;;
27794;SDS011;15176;50.844;4.412;2023-04-15T12:16:53;7.35;;;3.22;;
27794;SDS011;15176;50.844;4.412;2023-04-15T12:21:53;4.85;;;2.55;;
27794;SDS011;15176;50.844;4.412;2023-04-15T12:24:28;6.57;;;2.50;;
27794;SDS011;15176;50.844;4.412;2023-04-15T12:26:56;5.75;;;3.00;;
27794;SDS011;15176;50.844;4.412;2023-04-15T12:29:26;5.70;;;2.95;;
27794;SDS011;15176;50.844;4.412;2023-04-15T12:31:56;5.80;;;2.90;;
27794;SDS011;15176;50.844;4.412;2023-04-15T12:34:30;5.75;;;2.53;;
27794;SDS011;15176;50.844;4.412;2023-04-15T12:36:58;4.15;;;2.00;;
27794;SDS011;15176;50.844;4.412;2023-04-15T12:39:25;4.72;;;2.10;;
27794;SDS011;15176;50.844;4.412;2023-04-15T12:41:52;6.60;;;2.42;;
27794;SDS011;15176;50.844;4.412;2023-04-15T12:44:18;5.90;;;2.60;;
27794;SDS011;15176;50.844;4.412;2023-04-15T12:46:46;4.80;;;2.40;;
27794;SDS011;15176;50.844;4.412;2023-04-15T12:49:11;6.40;;;2.40;;
27794;SDS011;15176;50.844;4.412;2023-04-15T12:51:39;6.80;;;2.13;;
27794;SDS011;15176;50.844;4.412;2023-04-15T12:54:05;4.05;;;1.95;;
27794;SDS011;15176;50.844;4.412;2023-04-15T12:56:31;4.63;;;2.10;;
27794;SDS011;15176;50.844;4.412;2023-04-15T12:58:57;7.35;;;2.17;;
27794;SDS011;15176;50.844;4.412;2023-04-15T13:01:22;6.75;;;2.17;;
27794;SDS011;15176;50.844;4.412;2023-04-15T13:03:48;6.50;;;2.60;;
27794;SDS011;15176;50.844;4.412;2023-04-15T13:06:15;6.45;;;2.70;;
27794;SDS011;15176;50.844;4.412;2023-04-15T13:08:40;5.07;;;2.58;;
27794;SDS011;15176;50.844;4.412;2023-04-15T13:11:06;5.47;;;2.40;;
27794;SDS011;15176;50.844;4.412;2023-04-15T13:13:32;5.18;;;2.33;;
27794;SDS011;15176;50.844;4.412;2023-04-15T13:15:58;8.00;;;2.53;;
27794;SDS011;15176;50.844;4.412;2023-04-15T13:18:24;4.00;;;2.25;;
27794;SDS011;15176;50.844;4.412;2023-04-15T13:20:50;5.88;;;2.58;;
27794;SDS011;15176;50.844;4.412;2023-04-15T13:23:15;5.75;;;2.30;;
27794;SDS011;15176;50.844;4.412;2023-04-15T13:25:41;4.32;;;2.20;;
27794;SDS011;15176;50.844;4.412;2023-04-15T13:28:07;5.32;;;2.25;;
27794;SDS011;15176;50.844;4.412;2023-04-15T13:30:36;6.78;;;2.60;;
27794;SDS011;15176;50.844;4.412;2023-04-15T13:33:02;7.10;;;3.08;;
27794;SDS011;15176;50.844;4.412;2023-04-15T13:35:28;10.38;;;5.55;;
27794;SDS011;15176;50.844;4.412;2023-04-15T13:37:53;6.13;;;2.30;;
27794;SDS011;15176;50.844;4.412;2023-04-15T13:40:20;4.80;;;2.40;;
27794;SDS011;15176;50.844;4.412;2023-04-15T13:42:46;4.63;;;2.20;;
27794;SDS011;15176;50.844;4.412;2023-04-15T13:45:12;5.78;;;2.38;;
27794;SDS011;15176;50.844;4.412;2023-04-15T13:47:38;7.40;;;2.67;;
27794;SDS011;15176;50.844;4.412;2023-04-15T13:50:05;5.38;;;2.03;;
27794;SDS011;15176;50.844;4.412;2023-04-15T13:52:31;7.45;;;2.50;;
27794;SDS011;15176;50.844;4.412;2023-04-15T13:54:56;5.07;;;2.10;;
27794;SDS011;15176;50.844;4.412;2023-04-15T13:57:22;9.15;;;2.40;;
27794;SDS011;15176;50.844;4.412;2023-04-15T13:59:48;6.85;;;1.98;;
27794;SDS011;15176;50.844;4.412;2023-04-15T14:02:14;6.43;;;2.05;;
27794;SDS011;15176;50.844;4.412;2023-04-15T14:04:39;7.63;;;1.98;;
27794;SDS011;15176;50.844;4.412;2023-04-15T14:07:05;7.10;;;2.17;;
27794;SDS011;15176;50.844;4.412;2023-04-15T14:09:31;4.50;;;1.65;;
27794;SDS011;15176;50.844;4.412;2023-04-15T14:11:57;6.05;;;1.90;;
27794;SDS011;15176;50.844;4.412;2023-04-15T14:14:24;6.40;;;1.80;;
27794;SDS011;15176;50.844;4.412;2023-04-15T14:16:50;7.28;;;1.90;;
27794;SDS011;15176;50.844;4.412;2023-04-15T14:19:15;5.38;;;2.38;;
27794;SDS011;15176;50.844;4.412;2023-04-15T14:21:42;8.15;;;3.00;;
27794;SDS011;15176;50.844;4.412;2023-04-15T14:24:09;6.72;;;3.45;;
27794;SDS011;15176;50.844;4.412;2023-04-15T14:26:36;8.82;;;3.00;;
27794;SDS011;15176;50.844;4.412;2023-04-15T14:29:02;5.70;;;2.15;;
27794;SDS011;15176;50.844;4.412;2023-04-15T14:31:28;5.40;;;1.90;;
27794;SDS011;15176;50.844;4.412;2023-04-15T14:33:53;3.97;;;1.50;;
27794;SDS011;15176;50.844;4.412;2023-04-15T14:36:19;5.03;;;1.50;;
27794;SDS011;15176;50.844;4.412;2023-04-15T14:38:45;3.70;;;1.27;;
27794;SDS011;15176;50.844;4.412;2023-04-15T14:41:11;5.13;;;1.20;;
27794;SDS011;15176;50.844;4.412;2023-04-15T14:43:38;4.68;;;1.10;;
27794;SDS011;15176;50.844;4.412;2023-04-15T14:46:03;6.88;;;1.20;;
27794;SDS011;15176;50.844;4.412;2023-04-15T14:48:30;4.22;;;1.15;;